Time;durP1;ratioP1;P1;durP2;ratioP2;P2;SDS_P1;SDS_P2;PMS_P1;PMS_P2;Temp;Humidity;BMP_temperature;BMP_pressure;BME280_temperature;BME280_humidity;BME280_pressure;Samples;Min_cycle;Max_cycle;Signal;HPM_P1;HPM_P2
2023/12/07 00:00:17;;;;;;;0.10;0.10;;;;;;;3.28;100.00;99401.53;5154847;27;20196;-52
2023/12/07 00:03:06;;;;;;;0.10;0.10;;;;;;;3.36;100.00;99410.88;5153683;27;20196;-52
2023/12/07 00:05:53;;;;;;;0.00;0.00;;;;;;;3.21;100.00;99413.97;5154752;27;20220;-52
2023/12/07 00:08:40;;;;;;;0.00;0.00;;;;;;;2.76;100.00;99414.41;5153681;27;20206;-52
2023/12/07 00:11:27;;;;;;;0.00;0.00;;;;;;;2.74;100.00;99418.81;5154767;27;20197;-53
2023/12/07 00:14:14;;;;;;;0.00;0.00;;;;;;;2.65;100.00;99419.06;5154909;27;20185;-52
2023/12/07 00:17:02;;;;;;;0.00;0.00;;;;;;;3.02;100.00;99426.75;5153372;27;20219;-52
2023/12/07 00:19:53;;;;;;;0.00;0.00;;;;;;;2.93;100.00;99429.63;5154632;27;20192;-52
2023/12/07 00:22:41;;;;;;;0.00;0.00;;;;;;;2.87;100.00;99435.88;5154762;27;20189;-52
2023/12/07 00:25:28;;;;;;;0.00;0.00;;;;;;;3.09;100.00;99437.91;5154559;27;20192;-53
2023/12/07 00:28:16;;;;;;;0.10;0.10;;;;;;;2.72;100.00;99440.69;5154388;27;20286;-52
2023/12/07 00:31:02;;;;;;;0.10;0.10;;;;;;;2.99;100.00;99441.66;5154680;27;20307;-52
2023/12/07 00:33:51;;;;;;;0.00;0.00;;;;;;;2.92;100.00;99446.22;5153203;27;20227;-52
2023/12/07 00:36:38;;;;;;;0.03;0.03;;;;;;;2.93;100.00;99444.47;5154311;27;20187;-52
2023/12/07 00:39:26;;;;;;;0.00;0.00;;;;;;;2.86;100.00;99436.78;5154568;27;20197;-52
2023/12/07 00:42:12;;;;;;;0.10;0.10;;;;;;;2.96;100.00;99441.75;5154353;27;20201;-52
2023/12/07 00:44:59;;;;;;;0.10;0.10;;;;;;;3.19;100.00;99449.81;5138628;27;20254;-52
2023/12/07 00:47:46;;;;;;;0.00;0.00;;;;;;;3.08;100.00;99454.47;5152722;27;20228;-52
2023/12/07 00:50:35;;;;;;;0.00;0.00;;;;;;;3.02;100.00;99452.91;5154380;27;20196;-52
2023/12/07 00:53:21;;;;;;;0.00;0.00;;;;;;;3.37;100.00;99469.31;5154301;27;20188;-52
2023/12/07 00:56:09;;;;;;;0.00;0.00;;;;;;;2.97;100.00;99464.38;5154429;27;20212;-52
2023/12/07 00:58:56;;;;;;;0.00;0.00;;;;;;;3.12;100.00;99470.06;5154284;27;20185;-52
2023/12/07 01:01:43;;;;;;;0.00;0.00;;;;;;;3.06;100.00;99472.84;5153836;27;20197;-52
2023/12/07 01:04:31;;;;;;;0.10;0.10;;;;;;;2.89;100.00;99467.22;5154310;27;20205;-52
2023/12/07 01:07:19;;;;;;;0.00;0.00;;;;;;;2.83;100.00;99476.09;5153920;27;20213;-52
2023/12/07 01:10:07;;;;;;;0.00;0.00;;;;;;;2.92;100.00;99484.59;5154366;27;20185;-52
2023/12/07 01:12:54;;;;;;;0.00;0.00;;;;;;;2.84;100.00;99471.72;5154032;27;20184;-52
2023/12/07 01:15:41;;;;;;;0.10;0.10;;;;;;;2.74;100.00;99473.75;5154105;27;20189;-52
2023/12/07 01:18:28;;;;;;;0.00;0.00;;;;;;;2.83;100.00;99476.09;5152797;27;20184;-52
2023/12/07 01:21:14;;;;;;;0.00;0.00;;;;;;;2.83;100.00;99473.50;5156841;27;20207;-51
2023/12/07 01:24:03;;;;;;;0.10;0.10;;;;;;;2.74;100.00;99481.59;5158372;27;20189;-52
2023/12/07 01:27:01;;;;;;;0.03;0.03;;;;;;;2.56;100.00;99484.69;5157843;27;20227;-52
2023/12/07 01:29:49;;;;;;;0.00;0.00;;;;;;;2.62;100.00;99487.16;5158044;27;20200;-51
2023/12/07 01:32:36;;;;;;;0.00;0.00;;;;;;;2.64;100.00;99490.56;5156725;27;20185;-52
2023/12/07 01:35:23;;;;;;;0.10;0.10;;;;;;;2.52;100.00;99488.28;5158209;27;20197;-52
2023/12/07 01:38:10;;;;;;;0.00;0.00;;;;;;;2.50;100.00;99487.44;5157995;27;20184;-52
2023/12/07 01:40:58;;;;;;;0.00;0.00;;;;;;;2.50;100.00;99487.44;5157838;27;20280;-52
2023/12/07 01:43:46;;;;;;;0.00;0.00;;;;;;;2.22;100.00;99493.41;5157802;27;20349;-52
2023/12/07 01:46:33;;;;;;;0.00;0.00;;;;;;;2.14;100.00;99489.25;5157563;27;20295;-52
2023/12/07 01:49:20;;;;;;;0.00;0.00;;;;;;;2.37;100.00;99486.06;5157666;27;20185;-52
2023/12/07 01:52:08;;;;;;;0.00;0.00;;;;;;;2.22;100.00;99488.19;5157552;27;20216;-52
2023/12/07 01:54:55;;;;;;;0.03;0.03;;;;;;;2.03;100.00;99499.09;5157468;27;20189;-52
2023/12/07 01:57:45;;;;;;;0.10;0.10;;;;;;;1.92;100.00;99500.19;5157328;27;20192;-52
2023/12/07 02:00:32;;;;;;;0.10;0.10;;;;;;;2.09;100.00;99493.72;5157536;27;20262;-52
2023/12/07 02:03:21;;;;;;;0.10;0.10;;;;;;;2.10;100.00;99501.53;5156038;27;20193;-53
2023/12/07 02:06:10;;;;;;;0.10;0.10;;;;;;;1.98;100.00;99504.44;5157281;27;20289;-52
2023/12/07 02:08:57;;;;;;;0.10;0.10;;;;;;;2.10;100.00;99505.88;5157151;27;20189;-52
2023/12/07 02:11:44;;;;;;;0.10;0.10;;;;;;;2.55;100.00;99511.72;5156952;27;20192;-52
2023/12/07 02:14:34;;;;;;;0.10;0.10;;;;;;;2.73;100.00;99518.25;5157173;27;20184;-52
2023/12/07 02:17:27;;;;;;;0.10;0.10;;;;;;;2.74;100.00;99514.72;5156051;27;20181;-52
2023/12/07 02:20:22;;;;;;;0.10;0.10;;;;;;;2.50;100.00;99508.34;5157024;27;20196;-51
2023/12/07 02:23:09;;;;;;;0.10;0.10;;;;;;;2.52;100.00;99514.44;5157173;27;20200;-52
2023/12/07 02:26:04;;;;;;;0.10;0.10;;;;;;;2.57;100.00;99517.78;5157085;27;20185;-52
2023/12/07 02:28:52;;;;;;;0.10;0.10;;;;;;;2.69;100.00;99517.44;5156759;27;20289;-52
2023/12/07 02:31:39;;;;;;;0.10;0.10;;;;;;;2.88;100.00;99520.44;5155378;27;20193;-52
2023/12/07 02:34:27;;;;;;;0.00;0.00;;;;;;;2.87;100.00;99516.97;5141277;27;20197;-52
2023/12/07 02:37:14;;;;;;;0.00;0.00;;;;;;;3.04;100.00;99515.66;5156802;27;20189;-52
2023/12/07 02:40:04;;;;;;;0.00;0.00;;;;;;;3.14;100.00;99514.50;5156562;27;20607;-52
2023/12/07 02:42:52;;;;;;;0.00;0.00;;;;;;;2.93;100.00;99507.25;5156556;27;20232;-52
2023/12/07 02:45:40;;;;;;;0.00;0.00;;;;;;;2.90;100.00;99521.28;5156486;27;20231;-52
2023/12/07 02:48:27;;;;;;;0.00;0.00;;;;;;;2.89;100.00;99524.75;5155042;27;20308;-52
2023/12/07 02:51:14;;;;;;;0.10;0.10;;;;;;;2.77;100.00;99525.09;5156507;27;20200;-52
2023/12/07 02:54:01;;;;;;;0.00;0.00;;;;;;;2.59;100.00;99523.81;5156472;27;20209;-52
2023/12/07 02:56:49;;;;;;;0.00;0.00;;;;;;;2.41;100.00;99522.53;5156364;27;20727;-52
2023/12/07 02:59:36;;;;;;;0.00;0.00;;;;;;;2.29;100.00;99515.84;5156087;27;20197;-52
2023/12/07 03:02:24;;;;;;;0.00;0.00;;;;;;;2.39;100.00;99510.41;5154928;27;20219;-52
2023/12/07 03:05:11;;;;;;;0.00;0.00;;;;;;;2.24;100.00;99522.97;5156096;27;20671;-52
2023/12/07 03:07:58;;;;;;;0.03;0.03;;;;;;;2.36;100.00;99515.72;5155929;27;20208;-52
2023/12/07 03:10:45;;;;;;;0.00;0.00;;;;;;;2.15;100.00;99517.97;5155895;27;20185;-51
2023/12/07 03:13:32;;;;;;;0.00;0.00;;;;;;;2.41;100.00;99519.03;5156113;27;20188;-52
2023/12/07 03:16:19;;;;;;;0.00;0.00;;;;;;;2.31;100.00;99518.41;5155875;27;20201;-52
2023/12/07 03:19:07;;;;;;;0.10;0.10;;;;;;;2.33;100.00;99513.19;5155507;27;20188;-52
2023/12/07 03:21:54;;;;;;;0.00;0.00;;;;;;;2.10;100.00;99524.16;5155929;27;20193;-52
2023/12/07 03:24:45;;;;;;;0.00;0.00;;;;;;;2.09;100.00;99525.06;5155463;27;20208;-52
2023/12/07 03:27:32;;;;;;;0.00;0.00;;;;;;;2.31;100.00;99521.03;5155413;27;20343;-52
2023/12/07 03:30:19;;;;;;;0.00;0.00;;;;;;;1.99;100.00;99521.81;5155649;27;20200;-52
2023/12/07 03:33:05;;;;;;;0.00;0.00;;;;;;;1.94;100.00;99535.00;5154231;27;20277;-52
2023/12/07 03:35:53;;;;;;;0.00;0.00;;;;;;;1.84;100.00;99528.28;5155475;27;20683;-52
2023/12/07 03:38:40;;;;;;;0.10;0.10;;;;;;;1.68;100.00;99534.72;5139674;27;20243;-52
2023/12/07 03:41:27;;;;;;;0.00;0.00;;;;;;;1.71;100.00;99529.41;5155325;27;20258;-52
2023/12/07 03:44:14;;;;;;;0.10;0.10;;;;;;;1.63;100.00;99528.72;5155113;27;20204;-52
2023/12/07 03:47:02;;;;;;;0.10;0.10;;;;;;;1.60;100.00;99541.84;5154083;27;20204;-53
2023/12/07 03:49:49;;;;;;;0.10;0.10;;;;;;;1.58;100.00;99548.88;5155190;27;20212;-53
2023/12/07 03:52:37;;;;;;;0.00;0.00;;;;;;;1.63;100.00;99541.78;5155436;27;20212;-52
2023/12/07 03:55:24;;;;;;;0.00;0.00;;;;;;;1.49;100.00;99541.22;5155143;27;20193;-53
2023/12/07 03:58:13;;;;;;;0.10;0.10;;;;;;;1.60;100.00;99547.94;5155081;27;20192;-52
2023/12/07 04:00:59;;;;;;;0.10;0.10;;;;;;;1.65;100.00;99545.25;5155143;27;20387;-52
2023/12/07 04:03:46;;;;;;;0.00;0.00;;;;;;;1.63;100.00;99560.03;5153725;27;20193;-52
2023/12/07 04:06:33;;;;;;;0.07;0.07;;;;;;;1.93;100.00;99562.00;5154877;27;20250;-52
2023/12/07 04:09:21;;;;;;;0.00;0.00;;;;;;;1.53;100.00;99554.16;5154590;27;20801;-52
2023/12/07 04:12:08;;;;;;;0.00;0.00;;;;;;;1.40;100.00;99563.16;5154842;27;20286;-52
2023/12/07 04:14:55;;;;;;;0.00;0.00;;;;;;;1.32;100.00;99555.47;5154613;27;20184;-52
2023/12/07 04:17:42;;;;;;;0.10;0.10;;;;;;;1.44;100.00;99557.81;5153468;27;20261;-52
2023/12/07 04:20:28;;;;;;;0.00;0.00;;;;;;;1.30;100.00;99564.22;5154857;27;20192;-52
2023/12/07 04:23:16;;;;;;;0.00;0.00;;;;;;;1.32;100.00;99562.44;5154511;27;20196;-52
2023/12/07 04:26:04;;;;;;;0.00;0.00;;;;;;;1.35;100.00;99558.03;5154499;27;20216;-52
2023/12/07 04:28:51;;;;;;;0.00;0.00;;;;;;;1.36;100.00;99564.97;5154333;27;20266;-52
2023/12/07 04:31:38;;;;;;;0.10;0.10;;;;;;;1.32;100.00;99562.44;5153662;27;20263;-52
2023/12/07 04:34:25;;;;;;;0.00;0.00;;;;;;;1.19;100.00;99558.38;5154563;27;20199;-52
2023/12/07 04:37:12;;;;;;;0.10;0.10;;;;;;;1.51;100.00;99571.63;5154456;27;20239;-52
2023/12/07 04:39:59;;;;;;;0.00;0.00;;;;;;;1.20;100.00;99558.34;5154216;27;20188;-51
2023/12/07 04:42:48;;;;;;;0.10;0.10;;;;;;;1.11;100.00;99559.38;5154343;27;20587;-52
2023/12/07 04:45:34;;;;;;;0.10;0.10;;;;;;;1.24;100.00;99566.94;5154258;27;20200;-52
2023/12/07 04:48:21;;;;;;;0.00;0.00;;;;;;;1.49;100.00;99562.09;5152777;27;20698;-52
2023/12/07 04:51:08;;;;;;;0.10;0.10;;;;;;;2.08;100.00;99565.16;5154190;27;20211;-51
2023/12/07 04:53:55;;;;;;;0.00;0.00;;;;;;;1.57;100.00;99568.03;5154422;27;20369;-52
2023/12/07 04:56:55;;;;;;;0.00;0.00;;;;;;;1.15;100.00;99566.22;5138347;27;20704;-52
2023/12/07 04:59:46;;;;;;;0.00;0.00;;;;;;;1.48;100.00;99563.84;5154280;27;20188;-51
2023/12/07 05:02:33;;;;;;;0.00;0.00;;;;;;;1.08;100.00;99564.66;5152939;27;20258;-51
2023/12/07 05:05:20;;;;;;;0.10;0.10;;;;;;;0.93;100.00;99557.09;5154176;27;20193;-52
2023/12/07 05:08:07;;;;;;;0.00;0.00;;;;;;;0.93;100.00;99559.72;5154260;27;20196;-52
2023/12/07 05:10:54;;;;;;;0.00;0.00;;;;;;;0.93;100.00;99558.84;5154096;27;20258;-52
2023/12/07 05:13:41;;;;;;;0.00;0.00;;;;;;;0.71;100.00;99569.69;5154129;27;20196;-52
2023/12/07 05:16:29;;;;;;;0.10;0.10;;;;;;;0.69;100.00;99568.00;5154092;27;20204;-52
2023/12/07 05:19:16;;;;;;;0.10;0.10;;;;;;;0.73;100.00;99569.66;5154174;27;20307;-52
2023/12/07 05:22:03;;;;;;;0.07;0.07;;;;;;;1.00;100.00;99578.72;5153948;27;20192;-51
2023/12/07 05:24:50;;;;;;;0.10;0.10;;;;;;;1.08;100.00;99574.22;5154118;27;20709;-51
2023/12/07 05:27:37;;;;;;;0.00;0.00;;;;;;;0.85;100.00;99572.03;5153566;27;20262;-52
2023/12/07 05:30:24;;;;;;;0.00;0.00;;;;;;;0.79;100.00;99579.97;5153761;27;20346;-52
2023/12/07 05:33:12;;;;;;;0.00;0.00;;;;;;;1.05;100.00;99585.56;5152674;27;20192;-51
2023/12/07 05:36:00;;;;;;;0.10;0.10;;;;;;;0.97;100.00;99589.22;5153897;27;20272;-52
2023/12/07 05:38:47;;;;;;;0.00;0.00;;;;;;;0.71;100.00;99587.94;5153958;27;20379;-52
2023/12/07 05:41:33;;;;;;;0.00;0.00;;;;;;;0.69;100.00;99587.09;5153897;27;20205;-52
2023/12/07 05:44:22;;;;;;;0.00;0.00;;;;;;;0.36;100.00;99590.25;5153841;27;20745;-51
2023/12/07 05:47:09;;;;;;;0.00;0.00;;;;;;;0.41;100.00;99596.25;5152563;27;20192;-51
2023/12/07 05:49:58;;;;;;;0.00;0.00;;;;;;;0.56;100.00;99602.06;5153538;27;20213;-52
2023/12/07 05:52:45;;;;;;;0.07;0.07;;;;;;;0.42;100.00;99597.97;5154044;27;20208;-52
2023/12/07 05:55:32;;;;;;;0.00;0.00;;;;;;;0.54;100.00;99608.19;5153790;27;20214;-52
2023/12/07 05:58:19;;;;;;;0.10;0.10;;;;;;;0.45;100.00;99609.19;5153712;27;20674;-51
2023/12/07 06:01:07;;;;;;;0.00;0.00;;;;;;;0.52;100.00;99608.22;5153599;27;20193;-51
2023/12/07 06:03:55;;;;;;;0.10;0.10;;;;;;;1.35;100.00;99611.94;5152409;27;20258;-52
2023/12/07 06:06:45;;;;;;;0.10;0.10;;;;;;;1.56;100.00;99611.56;5153809;27;20196;-51
2023/12/07 06:09:32;;;;;;;0.10;0.10;;;;;;;1.66;100.00;99615.69;5157087;27;20217;-52
2023/12/07 06:12:21;;;;;;;0.10;0.10;;;;;;;2.17;100.00;99609.38;5157198;27;20189;-52
2023/12/07 06:15:10;;;;;;;0.00;0.00;;;;;;;2.14;100.00;99609.44;5157166;27;20197;-52
2023/12/07 06:17:57;;;;;;;0.00;0.00;;;;;;;1.38;100.00;99610.16;5155824;27;20184;-52
2023/12/07 06:20:44;;;;;;;0.10;0.10;;;;;;;1.24;100.00;99603.47;5157368;27;20192;-52
2023/12/07 06:23:33;;;;;;;0.10;0.10;;;;;;;1.85;100.00;99600.50;5157068;27;20196;-52
2023/12/07 06:26:20;;;;;;;0.00;0.00;;;;;;;1.88;100.00;99605.66;5156786;27;20196;-52
2023/12/07 06:29:07;;;;;;;0.00;0.00;;;;;;;1.42;100.00;99595.28;5156799;27;20698;-52
2023/12/07 06:31:54;;;;;;;0.00;0.00;;;;;;;1.33;100.00;99593.72;5155488;27;20203;-52
2023/12/07 06:34:42;;;;;;;0.00;0.00;;;;;;;1.22;100.00;99600.03;5156917;27;20189;-52
2023/12/07 06:37:29;;;;;;;0.10;0.10;;;;;;;1.13;100.00;99601.06;5156936;27;20222;-52
2023/12/07 06:40:17;;;;;;;0.00;0.00;;;;;;;1.10;100.00;99606.34;5156824;27;20196;-52
2023/12/07 06:43:04;;;;;;;0.00;0.00;;;;;;;1.02;100.00;99609.09;5156619;27;20192;-51
2023/12/07 06:45:51;;;;;;;0.00;0.00;;;;;;;0.92;100.00;99606.69;5156775;27;20189;-51
2023/12/07 06:48:38;;;;;;;0.00;0.00;;;;;;;1.02;100.00;99619.53;5155407;27;20192;-52
2023/12/07 06:51:25;;;;;;;0.10;0.10;;;;;;;0.93;100.00;99624.91;5156281;27;20201;-51
2023/12/07 06:54:13;;;;;;;0.00;0.00;;;;;;;0.98;100.00;99633.53;5156474;27;20193;-51
2023/12/07 06:57:01;;;;;;;0.00;0.00;;;;;;;0.89;100.00;99640.66;5140707;27;20197;-52
2023/12/07 06:59:48;;;;;;;0.10;0.10;;;;;;;0.87;100.00;99632.84;5156232;27;20180;-52
2023/12/07 07:02:35;;;;;;;0.00;0.00;;;;;;;0.88;100.00;99639.78;5155160;27;20205;-51
2023/12/07 07:05:22;;;;;;;0.00;0.00;;;;;;;1.18;100.00;99645.34;5156121;27;20230;-52
2023/12/07 07:08:09;;;;;;;0.00;0.00;;;;;;;1.03;100.00;99649.94;5155980;27;20270;-52
2023/12/07 07:10:57;;;;;;;0.00;0.00;;;;;;;1.07;100.00;99649.00;5155853;27;20274;-52
2023/12/07 07:13:45;;;;;;;0.00;0.00;;;;;;;0.95;100.00;99650.94;5156056;27;20196;-52
2023/12/07 07:16:32;;;;;;;0.00;0.00;;;;;;;0.84;100.00;99644.16;5155514;27;20204;-53
2023/12/07 07:19:19;;;;;;;0.00;0.00;;;;;;;0.72;100.00;99653.94;5155535;27;20254;-53
2023/12/07 07:22:06;;;;;;;0.00;0.00;;;;;;;0.58;100.00;99659.41;5155898;27;20188;-52
2023/12/07 07:24:53;;;;;;;0.00;0.00;;;;;;;0.95;100.00;99659.63;5155788;27;20203;-53
2023/12/07 07:27:41;;;;;;;0.00;0.00;;;;;;;0.80;100.00;99668.59;5155461;27;20217;-53
2023/12/07 07:30:29;;;;;;;0.00;0.00;;;;;;;0.68;100.00;99665.31;5155635;27;20208;-52
2023/12/07 07:33:16;;;;;;;0.00;0.00;;;;;;;0.53;100.00;99663.81;5154043;27;20295;-52
2023/12/07 07:36:03;;;;;;;0.00;0.00;;;;;;;0.72;100.00;99673.06;5155736;27;20196;-52
2023/12/07 07:38:50;;;;;;;0.10;0.10;;;;;;;0.83;100.00;99665.06;5155677;27;20193;-53
2023/12/07 07:41:37;;;;;;;0.00;0.00;;;;;;;0.78;100.00;99672.97;5155462;27;20263;-53
2023/12/07 07:44:24;;;;;;;0.00;0.00;;;;;;;1.18;100.00;99671.44;5155502;27;20197;-53
2023/12/07 07:47:12;;;;;;;0.00;0.00;;;;;;;1.08;100.00;99673.34;5154203;27;20196;-53
2023/12/07 07:50:04;;;;;;;0.10;0.10;;;;;;;1.28;100.00;99676.47;5155164;27;20254;-52
2023/12/07 07:52:51;;;;;;;0.00;0.00;;;;;;;1.18;100.00;99672.28;5155266;27;20548;-53
2023/12/07 07:55:38;;;;;;;0.00;0.00;;;;;;;1.28;100.00;99675.59;5155179;27;20188;-52
2023/12/07 07:58:25;;;;;;;0.00;0.00;;;;;;;1.25;100.00;99671.28;5155248;27;20249;-52
2023/12/07 08:01:12;;;;;;;0.00;0.00;;;;;;;1.27;100.00;99671.28;5154459;27;20306;-53
2023/12/07 08:04:03;;;;;;;0.00;0.00;;;;;;;1.14;100.00;99674.06;5155053;27;20192;-53
2023/12/07 08:06:50;;;;;;;0.00;0.00;;;;;;;1.25;100.00;99673.03;5155476;27;20209;-52
2023/12/07 08:09:37;;;;;;;0.00;0.00;;;;;;;1.31;100.00;99667.69;5155939;27;20242;-53
2023/12/07 08:12:24;;;;;;;0.10;0.10;;;;;;;1.27;100.00;99655.63;5155053;27;20230;-53
2023/12/07 08:15:11;;;;;;;0.10;0.10;;;;;;;1.25;100.00;99666.06;5154932;27;20641;-53
2023/12/07 08:17:58;;;;;;;0.00;0.00;;;;;;;1.18;100.00;99664.47;5153685;27;20196;-51
2023/12/07 08:20:47;;;;;;;0.00;0.00;;;;;;;1.59;100.00;99655.84;5154780;27;20671;-53
2023/12/07 08:23:33;;;;;;;0.10;0.10;;;;;;;1.56;100.00;99650.69;5154691;27;20189;-52
2023/12/07 08:26:20;;;;;;;0.00;0.00;;;;;;;1.48;100.00;99650.00;5154661;27;20197;-54
2023/12/07 08:29:07;;;;;;;0.10;0.10;;;;;;;1.31;100.00;99655.53;5154498;27;20181;-53
2023/12/07 08:31:55;;;;;;;0.00;0.00;;;;;;;1.39;100.00;99644.94;5153106;27;20189;-53
2023/12/07 08:34:44;;;;;;;0.10;0.10;;;;;;;1.56;100.00;99644.63;5153778;27;20201;-53
2023/12/07 08:37:32;;;;;;;0.00;0.00;;;;;;;1.61;100.00;99637.53;5154420;27;20181;-53
2023/12/07 08:40:19;;;;;;;0.00;0.00;;;;;;;1.65;100.00;99631.38;5154432;27;20250;-53
2023/12/07 08:43:05;;;;;;;0.10;0.10;;;;;;;1.64;100.00;99653.13;5154583;27;20192;-53
2023/12/07 08:45:53;;;;;;;0.00;0.00;;;;;;;1.52;100.00;99635.97;5154242;27;20619;-53
2023/12/07 08:48:47;;;;;;;0.00;0.00;;;;;;;1.82;100.00;99638.84;5153049;27;20193;-53
2023/12/07 08:51:34;;;;;;;0.00;0.00;;;;;;;1.72;100.00;99631.22;5154033;27;20223;-51
2023/12/07 08:54:22;;;;;;;0.10;0.10;;;;;;;1.91;100.00;99636.06;5154094;27;20189;-51
2023/12/07 08:57:09;;;;;;;0.00;0.00;;;;;;;1.75;100.00;99632.06;5154565;27;20235;-50
2023/12/07 08:59:56;;;;;;;0.10;0.10;;;;;;;1.66;100.00;99633.09;5154261;27;20214;-50
2023/12/07 09:02:43;;;;;;;0.10;0.10;;;;;;;1.65;100.00;99637.47;5152776;27;20716;-50
2023/12/07 09:05:33;;;;;;;0.00;0.00;;;;;;;1.79;100.00;99639.78;5154213;27;20197;-50
2023/12/07 09:08:20;;;;;;;0.00;0.00;;;;;;;2.14;100.00;99635.56;5154182;27;20295;-50
2023/12/07 09:11:08;;;;;;;0.00;0.00;;;;;;;2.24;100.00;99635.31;5153806;27;20257;-51
2023/12/07 09:13:55;;;;;;;0.00;0.00;;;;;;;2.38;100.00;99639.38;5154121;27;20682;-51
2023/12/07 09:16:45;;;;;;;0.00;0.00;;;;;;;2.36;100.00;99646.41;5152812;27;20189;-50
2023/12/07 09:19:32;;;;;;;0.00;0.00;;;;;;;2.38;100.00;99649.81;5154276;27;20265;-50
2023/12/07 09:22:19;;;;;;;0.10;0.10;;;;;;;2.24;100.00;99650.16;5154166;27;20311;-51
2023/12/07 09:25:11;;;;;;;0.00;0.00;;;;;;;2.25;100.00;99637.03;5153985;27;20212;-50
2023/12/07 09:28:00;;;;;;;0.00;0.00;;;;;;;2.29;100.00;99643.91;5153725;27;20294;-50
2023/12/07 09:30:46;;;;;;;0.00;0.00;;;;;;;2.46;100.00;99648.75;5153773;27;20228;-51
2023/12/07 09:33:33;;;;;;;0.00;0.00;;;;;;;2.28;100.00;99649.19;5152686;27;20205;-51
2023/12/07 09:36:21;;;;;;;0.00;0.00;;;;;;;2.36;100.00;99646.41;5153803;27;20386;-51
2023/12/07 09:39:09;;;;;;;0.10;0.10;;;;;;;2.28;100.00;99652.66;5153938;27;20197;-50
2023/12/07 09:41:56;;;;;;;0.00;0.00;;;;;;;1.94;100.00;99654.28;5155815;27;20644;-50
2023/12/07 09:44:45;;;;;;;0.00;0.00;;;;;;;2.11;100.00;99652.16;5158022;27;20265;-51
2023/12/07 09:47:32;;;;;;;0.00;0.00;;;;;;;2.28;100.00;99660.50;5156666;27;20189;-50
2023/12/07 09:50:24;;;;;;;0.00;0.00;;;;;;;1.89;100.00;99663.97;5157685;27;20658;-51
2023/12/07 09:53:11;;;;;;;0.00;0.00;;;;;;;2.05;100.00;99664.50;5157678;27;20188;-50
2023/12/07 09:55:58;;;;;;;0.10;0.10;;;;;;;2.19;100.00;99657.22;5157661;27;20732;-50
2023/12/07 09:58:45;;;;;;;0.00;0.00;;;;;;;2.04;100.00;99666.25;5157557;27;20193;-50
2023/12/07 10:01:34;;;;;;;0.00;0.00;;;;;;;2.34;100.00;99654.28;5156035;27;20290;-51
2023/12/07 10:04:25;;;;;;;0.00;0.00;;;;;;;2.49;100.00;99653.03;5157473;27;20192;-54
2023/12/07 10:07:12;;;;;;;0.00;0.00;;;;;;;2.73;100.00;99654.25;5157610;27;20291;-51
2023/12/07 10:09:59;;;;;;;0.10;0.10;;;;;;;2.69;100.00;99650.81;5157210;27;20250;-51
2023/12/07 10:12:48;;;;;;;0.00;0.00;;;;;;;2.73;100.00;99652.47;5157270;27;20189;-52
2023/12/07 10:15:35;;;;;;;0.00;0.00;;;;;;;3.20;100.00;99645.19;5157358;27;20282;-51
2023/12/07 10:18:25;;;;;;;0.00;0.00;;;;;;;2.99;100.00;99643.09;5156159;27;20197;-52
2023/12/07 10:21:12;;;;;;;0.00;0.00;;;;;;;2.70;100.00;99649.06;5157217;27;20192;-52
2023/12/07 10:24:02;;;;;;;0.00;0.00;;;;;;;2.58;100.00;99632.78;5156887;27;20227;-52
2023/12/07 10:26:50;;;;;;;0.00;0.00;;;;;;;2.65;100.00;99637.88;5156538;27;20232;-52
2023/12/07 10:29:50;;;;;;;0.00;0.00;;;;;;;2.56;100.00;99629.34;5157218;27;20446;-52
2023/12/07 10:32:38;;;;;;;0.00;0.00;;;;;;;2.17;100.00;99618.06;5155217;27;20245;-52
2023/12/07 10:35:26;;;;;;;0.10;0.10;;;;;;;2.19;100.00;99613.66;5156680;27;20302;-52
2023/12/07 10:38:13;;;;;;;0.00;0.00;;;;;;;2.56;100.00;99615.41;5156890;27;20189;-51
2023/12/07 10:41:06;;;;;;;0.00;0.00;;;;;;;2.37;100.00;99612.38;5156806;27;20188;-52
2023/12/07 10:43:54;;;;;;;0.10;0.10;;;;;;;2.40;100.00;99609.69;5156785;27;20192;-52
2023/12/07 10:46:44;;;;;;;0.10;0.10;;;;;;;2.52;100.00;99606.78;5155032;27;20702;-52
2023/12/07 10:49:32;;;;;;;0.00;0.00;;;;;;;2.71;100.00;99595.88;5156363;27;20322;-52
2023/12/07 10:52:26;;;;;;;0.07;0.07;;;;;;;2.38;100.00;99592.31;5155449;27;20208;-52
2023/12/07 10:55:19;;;;;;;0.00;0.00;;;;;;;2.46;100.00;99596.47;5156428;27;20209;-52
2023/12/07 10:58:07;;;;;;;0.00;0.00;;;;;;;2.49;100.00;99590.31;5156331;27;20238;-52
2023/12/07 11:00:54;;;;;;;0.00;0.00;;;;;;;2.49;100.00;99585.94;5156296;27;20633;-52
2023/12/07 11:03:42;;;;;;;0.07;0.07;;;;;;;2.74;100.00;99567.03;5154903;27;20258;-52
2023/12/07 11:06:30;;;;;;;0.00;0.00;;;;;;;2.89;100.00;99577.06;5156208;27;20193;-53
2023/12/07 11:09:24;;;;;;;0.03;0.03;;;;;;;3.06;100.00;99577.50;5156234;27;20191;-53
2023/12/07 11:12:31;;;;;;;0.00;0.00;;;;;;;3.02;100.00;99570.66;5155820;27;20217;-52
2023/12/07 11:15:19;;;;;;;0.00;0.00;;;;;;;2.72;100.00;99576.69;5155984;27;20217;-52
2023/12/07 11:18:07;;;;;;;0.10;0.10;;;;;;;2.20;100.00;99578.78;5154722;27;20307;-53
2023/12/07 11:20:56;;;;;;;0.00;0.00;;;;;;;2.40;100.00;99572.22;5155992;27;20262;-52
2023/12/07 11:23:42;;;;;;;0.00;0.00;;;;;;;2.50;100.00;99565.88;5140257;27;20262;-52
2023/12/07 11:26:31;;;;;;;0.10;0.10;;;;;;;2.15;100.00;99565.00;5155672;27;20201;-52
2023/12/07 11:29:20;;;;;;;0.00;0.00;;;;;;;2.10;100.00;99572.06;5155832;27;20611;-52
2023/12/07 11:32:11;;;;;;;0.00;0.00;;;;;;;2.22;100.00;99558.72;5154154;27;20310;-51
2023/12/07 11:35:06;;;;;;;0.00;0.00;;;;;;;2.30;100.00;99556.75;5155108;27;20197;-52
2023/12/07 11:38:05;;;;;;;0.00;0.00;;;;;;;2.85;100.00;99559.75;5155561;27;20242;-52
2023/12/07 11:40:53;;;;;;;0.00;0.00;;;;;;;2.64;100.00;99542.88;5155563;27;20192;-52
2023/12/07 11:43:45;;;;;;;0.00;0.00;;;;;;;2.50;100.00;99537.13;5155744;27;20231;-52
2023/12/07 11:46:34;;;;;;;0.00;0.00;;;;;;;2.92;100.00;99514.22;5154090;27;20196;-52
2023/12/07 11:49:22;;;;;;;0.00;0.00;;;;;;;2.97;100.00;99520.19;5155483;27;20786;-52
2023/12/07 11:52:21;;;;;;;0.00;0.00;;;;;;;2.78;100.00;99522.44;5155098;27;20232;-52
2023/12/07 11:55:08;;;;;;;0.00;0.00;;;;;;;2.84;100.00;99517.06;5155574;27;20545;-52
2023/12/07 11:57:55;;;;;;;0.00;0.00;;;;;;;2.65;100.00;99515.81;5155024;27;20193;-52
2023/12/07 12:00:44;;;;;;;0.00;0.00;;;;;;;3.04;100.00;99502.56;5155222;27;20197;-52
2023/12/07 12:03:32;;;;;;;0.00;0.00;;;;;;;3.03;100.00;99495.63;5154090;27;20188;-52
2023/12/07 12:06:19;;;;;;;0.00;0.00;;;;;;;2.94;100.00;99485.41;5154983;27;20560;-52
2023/12/07 12:09:07;;;;;;;0.00;0.00;;;;;;;3.50;100.00;99482.91;5155201;27;20188;-52
2023/12/07 12:12:00;;;;;;;0.00;0.00;;;;;;;3.08;100.00;99476.25;5155089;27;20216;-52
2023/12/07 12:14:46;;;;;;;0.00;0.00;;;;;;;3.00;100.00;99480.88;5154714;27;20716;-53
2023/12/07 12:17:36;;;;;;;0.00;0.00;;;;;;;3.32;100.00;99476.47;5153657;27;20205;-52
2023/12/07 12:20:23;;;;;;;0.03;0.03;;;;;;;3.17;100.00;99478.59;5154838;27;20196;-53
2023/12/07 12:23:09;;;;;;;0.07;0.07;;;;;;;3.24;100.00;99466.22;5154592;27;20193;-52
2023/12/07 12:25:57;;;;;;;0.00;0.00;;;;;;;3.26;100.00;99461.78;5154780;27;20249;-52
2023/12/07 12:28:45;;;;;;;0.00;0.00;;;;;;;3.41;100.00;99463.09;5154785;27;20192;-52
2023/12/07 12:31:32;;;;;;;0.00;0.00;;;;;;;3.28;100.00;99453.88;5153266;27;20192;-52
2023/12/07 12:34:21;;;;;;;0.10;0.10;;;;;;;3.36;100.00;99452.75;5154786;27;20185;-52
2023/12/07 12:37:09;;;;;;;0.00;0.00;;;;;;;3.24;100.00;99449.66;5154560;27;20189;-52
2023/12/07 12:39:56;;;;;;;0.00;0.00;;;;;;;2.78;100.00;99456.19;5154430;27;20327;-52
2023/12/07 12:42:45;;;;;;;0.03;0.03;;;;;;;2.76;100.00;99455.38;5154876;27;20421;-51
2023/12/07 12:45:33;;;;;;;0.00;0.00;;;;;;;2.95;100.00;99450.50;5154512;27;20224;-52
2023/12/07 12:48:20;;;;;;;0.00;0.00;;;;;;;2.94;100.00;99449.63;5153263;27;20209;-52
2023/12/07 12:51:14;;;;;;;0.10;0.10;;;;;;;2.77;100.00;99446.63;5154321;27;20196;-52
2023/12/07 12:54:01;;;;;;;0.00;0.00;;;;;;;2.80;100.00;99449.19;5154088;27;20250;-52
2023/12/07 12:56:48;;;;;;;0.00;0.00;;;;;;;2.76;100.00;99442.31;5154385;27;20196;-52
2023/12/07 12:59:35;;;;;;;0.00;0.00;;;;;;;2.99;100.00;99436.41;5154364;27;20195;-52
2023/12/07 13:02:23;;;;;;;0.00;0.00;;;;;;;2.90;100.00;99429.72;5152913;27;20193;-52
2023/12/07 13:05:10;;;;;;;0.10;0.10;;;;;;;3.22;100.00;99436.63;5154259;27;20690;-52
2023/12/07 13:07:59;;;;;;;0.00;0.00;;;;;;;3.20;100.00;99425.34;5154322;27;20318;-53
2023/12/07 13:11:00;;;;;;;0.00;0.00;;;;;;;3.28;100.00;99425.09;5154036;27;20192;-52